Terminal Aerodrome Forecast
Issued by NWS

Home | Current Version | Previous Version | Text Only | Print | Product List | Glossary On
Versions: 1 2 3 4 5 6 7 8 9 10 11 12 13 14 15 16 17 18 19 20 21 22 23 24 25 26 27 28
000
FTUS44 KOUN 231906 AAB
TAFPNC
TAF AMD
KPNC 231906Z 2319/2418 06008KT P6SM FEW080 OVC200
     FM240100 05007KT P6SM SCT100 SCT200
     FM241200 VRB04KT P6SM BKN280=

USA.gov is the U.S. government's official web portal to all federal, state and local government web resources and services.